sensor_id;sensor_type;location;lat;lon;timestamp;P1;durP1;ratioP1;P2;durP2;ratioP2
13592;SDS011;6867;50.998;4.250;2023-06-04T00:00:57;3.50;;;1.60;;
13592;SDS011;6867;50.998;4.250;2023-06-04T00:03:23;3.50;;;1.50;;
13592;SDS011;6867;50.998;4.250;2023-06-04T00:05:50;4.38;;;1.48;;
13592;SDS011;6867;50.998;4.250;2023-06-04T00:08:17;2.35;;;1.30;;
13592;SDS011;6867;50.998;4.250;2023-06-04T00:10:45;3.13;;;1.30;;
13592;SDS011;6867;50.998;4.250;2023-06-04T00:13:11;2.75;;;1.10;;
13592;SDS011;6867;50.998;4.250;2023-06-04T00:15:38;3.58;;;1.80;;
13592;SDS011;6867;50.998;4.250;2023-06-04T00:18:05;2.45;;;1.30;;
13592;SDS011;6867;50.998;4.250;2023-06-04T00:20:32;3.83;;;1.33;;
13592;SDS011;6867;50.998;4.250;2023-06-04T00:22:58;3.42;;;1.40;;
13592;SDS011;6867;50.998;4.250;2023-06-04T00:25:25;2.70;;;1.35;;
13592;SDS011;6867;50.998;4.250;2023-06-04T00:27:53;1.40;;;1.30;;
13592;SDS011;6867;50.998;4.250;2023-06-04T00:30:20;2.58;;;1.67;;
13592;SDS011;6867;50.998;4.250;2023-06-04T00:32:46;3.60;;;1.73;;
13592;SDS011;6867;50.998;4.250;2023-06-04T00:35:13;2.40;;;1.50;;
13592;SDS011;6867;50.998;4.250;2023-06-04T00:37:40;2.70;;;1.60;;
13592;SDS011;6867;50.998;4.250;2023-06-04T00:40:07;3.57;;;1.70;;
13592;SDS011;6867;50.998;4.250;2023-06-04T00:42:34;3.47;;;1.80;;
13592;SDS011;6867;50.998;4.250;2023-06-04T00:45:02;2.30;;;1.65;;
13592;SDS011;6867;50.998;4.250;2023-06-04T00:47:32;3.00;;;1.42;;
13592;SDS011;6867;50.998;4.250;2023-06-04T00:49:59;2.70;;;1.50;;
13592;SDS011;6867;50.998;4.250;2023-06-04T00:52:26;3.17;;;1.70;;
13592;SDS011;6867;50.998;4.250;2023-06-04T00:54:53;1.63;;;1.37;;
13592;SDS011;6867;50.998;4.250;2023-06-04T00:57:20;2.35;;;1.52;;
13592;SDS011;6867;50.998;4.250;2023-06-04T00:59:47;3.60;;;1.57;;
13592;SDS011;6867;50.998;4.250;2023-06-04T01:02:16;3.77;;;1.80;;
13592;SDS011;6867;50.998;4.250;2023-06-04T01:04:47;2.13;;;1.53;;
13592;SDS011;6867;50.998;4.250;2023-06-04T01:07:20;6.50;;;1.87;;
13592;SDS011;6867;50.998;4.250;2023-06-04T01:09:48;2.83;;;1.65;;
13592;SDS011;6867;50.998;4.250;2023-06-04T01:12:15;3.37;;;1.73;;
13592;SDS011;6867;50.998;4.250;2023-06-04T01:14:42;2.70;;;1.60;;
13592;SDS011;6867;50.998;4.250;2023-06-04T01:17:11;2.93;;;1.80;;
13592;SDS011;6867;50.998;4.250;2023-06-04T01:22:33;4.83;;;1.80;;
13592;SDS011;6867;50.998;4.250;2023-06-04T01:25:04;2.47;;;1.80;;
13592;SDS011;6867;50.998;4.250;2023-06-04T01:27:36;1.97;;;1.77;;
13592;SDS011;6867;50.998;4.250;2023-06-04T01:30:05;5.70;;;1.73;;
13592;SDS011;6867;50.998;4.250;2023-06-04T01:32:35;2.73;;;1.70;;
13592;SDS011;6867;50.998;4.250;2023-06-04T01:35:06;5.70;;;1.80;;
13592;SDS011;6867;50.998;4.250;2023-06-04T01:37:34;3.05;;;1.92;;
13592;SDS011;6867;50.998;4.250;2023-06-04T01:40:03;4.23;;;2.10;;
13592;SDS011;6867;50.998;4.250;2023-06-04T01:42:33;4.65;;;1.83;;
13592;SDS011;6867;50.998;4.250;2023-06-04T01:45:00;3.20;;;1.80;;
13592;SDS011;6867;50.998;4.250;2023-06-04T01:47:26;3.60;;;1.87;;
13592;SDS011;6867;50.998;4.250;2023-06-04T01:49:53;4.60;;;1.90;;
13592;SDS011;6867;50.998;4.250;2023-06-04T01:52:21;2.72;;;1.80;;
13592;SDS011;6867;50.998;4.250;2023-06-04T01:54:48;2.87;;;2.00;;
13592;SDS011;6867;50.998;4.250;2023-06-04T01:57:17;3.53;;;1.93;;
13592;SDS011;6867;50.998;4.250;2023-06-04T01:59:44;3.20;;;2.00;;
13592;SDS011;6867;50.998;4.250;2023-06-04T02:02:11;2.60;;;2.07;;
13592;SDS011;6867;50.998;4.250;2023-06-04T02:04:38;5.57;;;1.93;;
13592;SDS011;6867;50.998;4.250;2023-06-04T02:07:06;2.53;;;2.00;;
13592;SDS011;6867;50.998;4.250;2023-06-04T02:09:34;5.13;;;2.03;;
13592;SDS011;6867;50.998;4.250;2023-06-04T02:12:01;2.90;;;1.80;;
13592;SDS011;6867;50.998;4.250;2023-06-04T02:14:28;2.10;;;1.90;;
13592;SDS011;6867;50.998;4.250;2023-06-04T02:16:55;3.73;;;2.20;;
13592;SDS011;6867;50.998;4.250;2023-06-04T02:19:22;3.43;;;2.70;;
13592;SDS011;6867;50.998;4.250;2023-06-04T02:21:51;4.33;;;2.00;;
13592;SDS011;6867;50.998;4.250;2023-06-04T02:24:17;3.13;;;2.10;;
13592;SDS011;6867;50.998;4.250;2023-06-04T02:26:46;4.80;;;2.40;;
13592;SDS011;6867;50.998;4.250;2023-06-04T02:29:12;4.03;;;2.03;;
13592;SDS011;6867;50.998;4.250;2023-06-04T02:31:39;4.53;;;2.10;;
13592;SDS011;6867;50.998;4.250;2023-06-04T02:34:06;3.93;;;1.87;;
13592;SDS011;6867;50.998;4.250;2023-06-04T02:36:32;3.60;;;2.30;;
13592;SDS011;6867;50.998;4.250;2023-06-04T02:39:00;2.10;;;1.80;;
13592;SDS011;6867;50.998;4.250;2023-06-04T02:41:27;3.80;;;2.00;;
13592;SDS011;6867;50.998;4.250;2023-06-04T02:43:55;5.03;;;2.07;;
13592;SDS011;6867;50.998;4.250;2023-06-04T02:46:22;7.30;;;2.10;;
13592;SDS011;6867;50.998;4.250;2023-06-04T02:48:49;2.70;;;2.23;;
13592;SDS011;6867;50.998;4.250;2023-06-04T02:51:15;1.93;;;1.83;;
13592;SDS011;6867;50.998;4.250;2023-06-04T02:53:42;4.00;;;2.20;;
13592;SDS011;6867;50.998;4.250;2023-06-04T02:56:10;5.50;;;2.43;;
13592;SDS011;6867;50.998;4.250;2023-06-04T02:58:37;4.80;;;2.20;;
13592;SDS011;6867;50.998;4.250;2023-06-04T03:01:06;4.60;;;2.07;;
13592;SDS011;6867;50.998;4.250;2023-06-04T03:03:33;6.83;;;2.13;;
13592;SDS011;6867;50.998;4.250;2023-06-04T03:05:59;3.60;;;2.27;;
13592;SDS011;6867;50.998;4.250;2023-06-04T03:08:27;4.60;;;2.10;;
13592;SDS011;6867;50.998;4.250;2023-06-04T03:10:54;3.40;;;2.20;;
13592;SDS011;6867;50.998;4.250;2023-06-04T03:13:20;4.43;;;1.90;;
13592;SDS011;6867;50.998;4.250;2023-06-04T03:15:47;3.60;;;2.20;;
13592;SDS011;6867;50.998;4.250;2023-06-04T03:18:15;3.90;;;2.40;;
13592;SDS011;6867;50.998;4.250;2023-06-04T03:20:42;2.30;;;1.90;;
13592;SDS011;6867;50.998;4.250;2023-06-04T03:23:08;3.17;;;2.43;;
13592;SDS011;6867;50.998;4.250;2023-06-04T03:25:35;2.90;;;2.03;;
13592;SDS011;6867;50.998;4.250;2023-06-04T03:28:02;4.27;;;2.60;;
13592;SDS011;6867;50.998;4.250;2023-06-04T03:30:30;3.67;;;2.10;;
13592;SDS011;6867;50.998;4.250;2023-06-04T03:32:56;2.83;;;2.07;;
13592;SDS011;6867;50.998;4.250;2023-06-04T03:35:24;4.00;;;2.20;;
13592;SDS011;6867;50.998;4.250;2023-06-04T03:37:51;5.03;;;2.47;;
13592;SDS011;6867;50.998;4.250;2023-06-04T03:40:18;4.47;;;2.20;;
13592;SDS011;6867;50.998;4.250;2023-06-04T03:42:44;5.77;;;2.10;;
13592;SDS011;6867;50.998;4.250;2023-06-04T03:45:11;2.97;;;2.03;;
13592;SDS011;6867;50.998;4.250;2023-06-04T03:47:38;9.30;;;2.80;;
13592;SDS011;6867;50.998;4.250;2023-06-04T03:50:05;5.00;;;2.27;;
13592;SDS011;6867;50.998;4.250;2023-06-04T03:52:34;3.30;;;1.73;;
13592;SDS011;6867;50.998;4.250;2023-06-04T03:55:01;2.87;;;1.97;;
13592;SDS011;6867;50.998;4.250;2023-06-04T03:57:28;2.57;;;2.10;;
13592;SDS011;6867;50.998;4.250;2023-06-04T03:59:56;3.30;;;2.30;;
13592;SDS011;6867;50.998;4.250;2023-06-04T04:02:22;4.07;;;2.33;;
13592;SDS011;6867;50.998;4.250;2023-06-04T04:04:49;3.83;;;2.43;;
13592;SDS011;6867;50.998;4.250;2023-06-04T04:07:19;4.07;;;2.20;;
13592;SDS011;6867;50.998;4.250;2023-06-04T04:09:47;2.77;;;2.20;;
13592;SDS011;6867;50.998;4.250;2023-06-04T04:12:14;4.07;;;2.20;;
13592;SDS011;6867;50.998;4.250;2023-06-04T04:14:41;3.03;;;2.23;;
13592;SDS011;6867;50.998;4.250;2023-06-04T04:17:07;4.47;;;2.27;;
13592;SDS011;6867;50.998;4.250;2023-06-04T04:19:34;3.27;;;1.97;;
13592;SDS011;6867;50.998;4.250;2023-06-04T04:22:01;5.87;;;2.20;;
13592;SDS011;6867;50.998;4.250;2023-06-04T04:24:28;3.03;;;2.20;;
13592;SDS011;6867;50.998;4.250;2023-06-04T04:26:56;3.63;;;2.50;;
13592;SDS011;6867;50.998;4.250;2023-06-04T04:29:23;3.90;;;2.50;;
13592;SDS011;6867;50.998;4.250;2023-06-04T04:31:50;6.33;;;2.70;;
13592;SDS011;6867;50.998;4.250;2023-06-04T04:34:17;6.23;;;2.20;;
13592;SDS011;6867;50.998;4.250;2023-06-04T04:36:46;4.70;;;2.30;;
13592;SDS011;6867;50.998;4.250;2023-06-04T04:39:17;3.93;;;2.43;;
13592;SDS011;6867;50.998;4.250;2023-06-04T04:41:44;7.33;;;2.23;;
13592;SDS011;6867;50.998;4.250;2023-06-04T04:44:12;3.13;;;2.37;;
13592;SDS011;6867;50.998;4.250;2023-06-04T04:46:38;4.03;;;2.50;;
13592;SDS011;6867;50.998;4.250;2023-06-04T04:49:05;2.47;;;2.20;;
13592;SDS011;6867;50.998;4.250;2023-06-04T04:51:32;5.47;;;2.28;;
13592;SDS011;6867;50.998;4.250;2023-06-04T04:53:58;5.07;;;2.60;;
13592;SDS011;6867;50.998;4.250;2023-06-04T04:56:26;4.25;;;2.60;;
13592;SDS011;6867;50.998;4.250;2023-06-04T04:58:53;4.00;;;2.20;;
13592;SDS011;6867;50.998;4.250;2023-06-04T05:01:21;2.92;;;2.13;;
13592;SDS011;6867;50.998;4.250;2023-06-04T05:03:49;9.90;;;2.70;;
13592;SDS011;6867;50.998;4.250;2023-06-04T05:06:15;4.05;;;2.55;;
13592;SDS011;6867;50.998;4.250;2023-06-04T05:08:42;7.45;;;3.13;;
13592;SDS011;6867;50.998;4.250;2023-06-04T05:11:09;5.60;;;2.40;;
13592;SDS011;6867;50.998;4.250;2023-06-04T05:13:35;6.53;;;2.55;;
13592;SDS011;6867;50.998;4.250;2023-06-04T05:16:02;3.40;;;2.25;;
13592;SDS011;6867;50.998;4.250;2023-06-04T05:18:33;3.53;;;2.40;;
13592;SDS011;6867;50.998;4.250;2023-06-04T05:20:59;4.57;;;2.90;;
13592;SDS011;6867;50.998;4.250;2023-06-04T05:23:27;3.08;;;2.22;;
13592;SDS011;6867;50.998;4.250;2023-06-04T05:25:54;2.38;;;2.15;;
13592;SDS011;6867;50.998;4.250;2023-06-04T05:28:21;7.05;;;2.60;;
13592;SDS011;6867;50.998;4.250;2023-06-04T05:30:50;3.83;;;2.53;;
13592;SDS011;6867;50.998;4.250;2023-06-04T05:33:18;5.28;;;2.60;;
13592;SDS011;6867;50.998;4.250;2023-06-04T05:35:47;2.67;;;2.00;;
13592;SDS011;6867;50.998;4.250;2023-06-04T05:38:14;3.30;;;2.38;;
13592;SDS011;6867;50.998;4.250;2023-06-04T05:40:42;4.72;;;2.45;;
13592;SDS011;6867;50.998;4.250;2023-06-04T05:43:09;3.58;;;2.90;;
13592;SDS011;6867;50.998;4.250;2023-06-04T05:45:35;5.38;;;2.55;;
13592;SDS011;6867;50.998;4.250;2023-06-04T05:48:02;2.30;;;1.98;;
13592;SDS011;6867;50.998;4.250;2023-06-04T05:50:29;4.35;;;2.10;;
13592;SDS011;6867;50.998;4.250;2023-06-04T05:52:57;6.72;;;2.22;;
13592;SDS011;6867;50.998;4.250;2023-06-04T05:55:24;4.75;;;3.20;;
13592;SDS011;6867;50.998;4.250;2023-06-04T05:57:51;5.38;;;2.30;;
13592;SDS011;6867;50.998;4.250;2023-06-04T06:00:17;4.68;;;2.60;;
13592;SDS011;6867;50.998;4.250;2023-06-04T06:02:44;6.88;;;2.70;;
13592;SDS011;6867;50.998;4.250;2023-06-04T06:05:14;3.25;;;2.25;;
13592;SDS011;6867;50.998;4.250;2023-06-04T06:07:41;5.53;;;2.30;;
13592;SDS011;6867;50.998;4.250;2023-06-04T06:10:09;4.40;;;2.90;;
13592;SDS011;6867;50.998;4.250;2023-06-04T06:12:36;5.22;;;2.13;;
13592;SDS011;6867;50.998;4.250;2023-06-04T06:15:04;4.75;;;2.22;;
13592;SDS011;6867;50.998;4.250;2023-06-04T06:17:31;7.22;;;2.50;;
13592;SDS011;6867;50.998;4.250;2023-06-04T06:19:59;6.15;;;2.75;;
13592;SDS011;6867;50.998;4.250;2023-06-04T06:22:26;4.75;;;2.33;;
13592;SDS011;6867;50.998;4.250;2023-06-04T06:24:53;3.45;;;2.50;;
13592;SDS011;6867;50.998;4.250;2023-06-04T06:27:21;2.63;;;2.13;;
13592;SDS011;6867;50.998;4.250;2023-06-04T06:29:48;4.00;;;2.70;;
13592;SDS011;6867;50.998;4.250;2023-06-04T06:32:14;3.55;;;2.22;;
13592;SDS011;6867;50.998;4.250;2023-06-04T06:34:41;4.13;;;2.85;;
13592;SDS011;6867;50.998;4.250;2023-06-04T06:37:08;3.92;;;2.42;;
13592;SDS011;6867;50.998;4.250;2023-06-04T06:39:34;3.47;;;2.40;;
13592;SDS011;6867;50.998;4.250;2023-06-04T06:42:01;4.15;;;2.25;;
13592;SDS011;6867;50.998;4.250;2023-06-04T06:44:29;3.22;;;2.50;;
13592;SDS011;6867;50.998;4.250;2023-06-04T06:46:56;2.65;;;2.33;;
13592;SDS011;6867;50.998;4.250;2023-06-04T06:49:23;7.38;;;2.45;;
13592;SDS011;6867;50.998;4.250;2023-06-04T06:51:49;3.78;;;2.28;;
13592;SDS011;6867;50.998;4.250;2023-06-04T06:54:16;3.17;;;2.60;;
13592;SDS011;6867;50.998;4.250;2023-06-04T06:56:46;2.67;;;2.15;;
13592;SDS011;6867;50.998;4.250;2023-06-04T06:59:13;7.03;;;3.00;;
13592;SDS011;6867;50.998;4.250;2023-06-04T07:01:41;3.20;;;2.05;;
13592;SDS011;6867;50.998;4.250;2023-06-04T07:04:08;4.78;;;1.90;;
13592;SDS011;6867;50.998;4.250;2023-06-04T07:06:35;2.40;;;2.20;;
13592;SDS011;6867;50.998;4.250;2023-06-04T07:09:02;2.47;;;1.75;;
13592;SDS011;6867;50.998;4.250;2023-06-04T07:11:29;2.50;;;2.00;;
13592;SDS011;6867;50.998;4.250;2023-06-04T07:13:56;3.63;;;2.40;;
13592;SDS011;6867;50.998;4.250;2023-06-04T07:16:22;3.45;;;2.22;;
13592;SDS011;6867;50.998;4.250;2023-06-04T07:18:50;3.33;;;2.13;;
13592;SDS011;6867;50.998;4.250;2023-06-04T07:21:17;3.47;;;2.22;;
13592;SDS011;6867;50.998;4.250;2023-06-04T07:23:44;2.30;;;1.88;;
13592;SDS011;6867;50.998;4.250;2023-06-04T07:26:14;3.83;;;1.77;;
13592;SDS011;6867;50.998;4.250;2023-06-04T07:28:41;5.43;;;2.00;;
13592;SDS011;6867;50.998;4.250;2023-06-04T07:31:08;6.72;;;2.42;;
13592;SDS011;6867;50.998;4.250;2023-06-04T07:33:34;2.88;;;1.90;;
13592;SDS011;6867;50.998;4.250;2023-06-04T07:36:09;4.70;;;2.10;;
13592;SDS011;6867;50.998;4.250;2023-06-04T07:38:36;2.60;;;1.77;;
13592;SDS011;6867;50.998;4.250;2023-06-04T07:41:03;2.22;;;1.80;;
13592;SDS011;6867;50.998;4.250;2023-06-04T07:43:30;1.98;;;1.77;;
13592;SDS011;6867;50.998;4.250;2023-06-04T07:45:56;4.18;;;1.85;;
13592;SDS011;6867;50.998;4.250;2023-06-04T07:48:23;2.65;;;1.88;;
13592;SDS011;6867;50.998;4.250;2023-06-04T07:50:55;3.88;;;2.08;;
13592;SDS011;6867;50.998;4.250;2023-06-04T07:53:23;3.55;;;2.00;;
13592;SDS011;6867;50.998;4.250;2023-06-04T07:55:50;5.65;;;2.15;;
13592;SDS011;6867;50.998;4.250;2023-06-04T07:58:17;5.80;;;1.65;;
13592;SDS011;6867;50.998;4.250;2023-06-04T08:00:44;3.33;;;1.60;;
13592;SDS011;6867;50.998;4.250;2023-06-04T08:03:10;2.67;;;1.85;;
13592;SDS011;6867;50.998;4.250;2023-06-04T08:05:37;4.25;;;1.48;;
13592;SDS011;6867;50.998;4.250;2023-06-04T08:08:04;1.50;;;1.40;;
13592;SDS011;6867;50.998;4.250;2023-06-04T08:10:32;1.80;;;1.52;;
13592;SDS011;6867;50.998;4.250;2023-06-04T08:12:59;2.10;;;1.55;;
13592;SDS011;6867;50.998;4.250;2023-06-04T08:15:26;5.55;;;1.90;;
13592;SDS011;6867;50.998;4.250;2023-06-04T08:17:52;2.20;;;1.65;;
13592;SDS011;6867;50.998;4.250;2023-06-04T08:20:19;2.83;;;1.92;;
13592;SDS011;6867;50.998;4.250;2023-06-04T08:22:46;3.53;;;1.98;;
13592;SDS011;6867;50.998;4.250;2023-06-04T08:25:13;3.47;;;1.67;;
13592;SDS011;6867;50.998;4.250;2023-06-04T08:27:42;2.35;;;1.23;;
13592;SDS011;6867;50.998;4.250;2023-06-04T08:30:09;3.38;;;1.67;;
13592;SDS011;6867;50.998;4.250;2023-06-04T08:32:36;4.43;;;1.85;;
13592;SDS011;6867;50.998;4.250;2023-06-04T08:35:03;2.22;;;1.80;;
13592;SDS011;6867;50.998;4.250;2023-06-04T08:37:30;3.63;;;1.75;;
13592;SDS011;6867;50.998;4.250;2023-06-04T08:39:57;2.13;;;1.38;;
13592;SDS011;6867;50.998;4.250;2023-06-04T08:42:27;1.55;;;1.30;;
13592;SDS011;6867;50.998;4.250;2023-06-04T08:44:57;4.85;;;1.20;;
13592;SDS011;6867;50.998;4.250;2023-06-04T08:47:24;2.58;;;1.63;;
13592;SDS011;6867;50.998;4.250;2023-06-04T08:49:52;2.58;;;1.50;;
13592;SDS011;6867;50.998;4.250;2023-06-04T08:52:21;3.90;;;1.50;;
13592;SDS011;6867;50.998;4.250;2023-06-04T08:54:49;4.43;;;1.42;;
13592;SDS011;6867;50.998;4.250;2023-06-04T08:57:17;3.63;;;1.40;;
13592;SDS011;6867;50.998;4.250;2023-06-04T08:59:45;2.08;;;1.30;;
13592;SDS011;6867;50.998;4.250;2023-06-04T09:02:14;3.67;;;1.33;;
13592;SDS011;6867;50.998;4.250;2023-06-04T09:04:41;2.78;;;1.30;;
13592;SDS011;6867;50.998;4.250;2023-06-04T09:07:08;1.67;;;1.13;;
13592;SDS011;6867;50.998;4.250;2023-06-04T09:09:39;3.20;;;1.45;;
13592;SDS011;6867;50.998;4.250;2023-06-04T09:12:08;2.35;;;1.50;;
13592;SDS011;6867;50.998;4.250;2023-06-04T09:14:36;4.55;;;1.02;;
13592;SDS011;6867;50.998;4.250;2023-06-04T09:17:03;2.20;;;1.50;;
13592;SDS011;6867;50.998;4.250;2023-06-04T09:19:31;4.97;;;1.60;;
13592;SDS011;6867;50.998;4.250;2023-06-04T09:21:59;1.52;;;1.27;;
13592;SDS011;6867;50.998;4.250;2023-06-04T09:24:38;1.45;;;1.20;;
13592;SDS011;6867;50.998;4.250;2023-06-04T09:27:09;2.05;;;1.50;;
13592;SDS011;6867;50.998;4.250;2023-06-04T09:29:36;2.75;;;1.23;;
13592;SDS011;6867;50.998;4.250;2023-06-04T09:32:03;2.50;;;1.17;;
13592;SDS011;6867;50.998;4.250;2023-06-04T09:34:32;3.65;;;1.40;;
13592;SDS011;6867;50.998;4.250;2023-06-04T09:36:58;2.22;;;1.10;;
13592;SDS011;6867;50.998;4.250;2023-06-04T09:39:25;3.25;;;1.40;;
13592;SDS011;6867;50.998;4.250;2023-06-04T09:41:58;1.63;;;1.25;;
13592;SDS011;6867;50.998;4.250;2023-06-04T09:44:26;2.92;;;1.30;;
13592;SDS011;6867;50.998;4.250;2023-06-04T09:46:54;3.15;;;1.55;;
13592;SDS011;6867;50.998;4.250;2023-06-04T09:49:21;1.98;;;1.10;;
13592;SDS011;6867;50.998;4.250;2023-06-04T09:51:50;2.30;;;1.33;;
13592;SDS011;6867;50.998;4.250;2023-06-04T09:54:17;1.73;;;1.15;;
13592;SDS011;6867;50.998;4.250;2023-06-04T09:56:43;5.43;;;1.27;;
13592;SDS011;6867;50.998;4.250;2023-06-04T09:59:10;2.17;;;1.20;;
13592;SDS011;6867;50.998;4.250;2023-06-04T10:01:39;3.78;;;1.50;;
13592;SDS011;6867;50.998;4.250;2023-06-04T10:04:07;2.25;;;1.30;;
13592;SDS011;6867;50.998;4.250;2023-06-04T10:06:36;1.75;;;1.23;;
13592;SDS011;6867;50.998;4.250;2023-06-04T10:09:06;1.88;;;1.20;;
13592;SDS011;6867;50.998;4.250;2023-06-04T10:11:35;1.20;;;1.10;;
13592;SDS011;6867;50.998;4.250;2023-06-04T10:14:08;3.63;;;1.25;;
13592;SDS011;6867;50.998;4.250;2023-06-04T10:16:42;4.20;;;1.58;;
13592;SDS011;6867;50.998;4.250;2023-06-04T10:19:09;2.88;;;1.35;;
13592;SDS011;6867;50.998;4.250;2023-06-04T10:21:37;2.10;;;1.15;;
13592;SDS011;6867;50.998;4.250;2023-06-04T10:24:04;4.90;;;1.50;;
13592;SDS011;6867;50.998;4.250;2023-06-04T10:26:33;1.30;;;1.20;;
13592;SDS011;6867;50.998;4.250;2023-06-04T10:29:00;1.48;;;1.20;;
13592;SDS011;6867;50.998;4.250;2023-06-04T10:31:27;2.90;;;1.25;;
13592;SDS011;6867;50.998;4.250;2023-06-04T10:33:54;2.33;;;1.40;;
13592;SDS011;6867;50.998;4.250;2023-06-04T10:36:22;4.55;;;1.30;;
13592;SDS011;6867;50.998;4.250;2023-06-04T10:38:50;2.00;;;1.35;;
13592;SDS011;6867;50.998;4.250;2023-06-04T10:41:18;8.25;;;1.23;;
13592;SDS011;6867;50.998;4.250;2023-06-04T10:43:47;1.55;;;1.08;;
13592;SDS011;6867;50.998;4.250;2023-06-04T10:46:15;3.85;;;1.70;;
13592;SDS011;6867;50.998;4.250;2023-06-04T10:48:49;1.67;;;1.13;;
13592;SDS011;6867;50.998;4.250;2023-06-04T10:51:28;2.42;;;1.02;;
13592;SDS011;6867;50.998;4.250;2023-06-04T10:53:56;2.15;;;1.20;;
13592;SDS011;6867;50.998;4.250;2023-06-04T10:56:26;2.63;;;1.00;;
13592;SDS011;6867;50.998;4.250;2023-06-04T10:58:54;5.10;;;1.08;;
13592;SDS011;6867;50.998;4.250;2023-06-04T11:01:25;2.75;;;1.40;;
13592;SDS011;6867;50.998;4.250;2023-06-04T11:03:52;4.30;;;1.30;;
13592;SDS011;6867;50.998;4.250;2023-06-04T11:06:19;3.35;;;1.10;;
13592;SDS011;6867;50.998;4.250;2023-06-04T11:08:46;2.20;;;1.00;;
13592;SDS011;6867;50.998;4.250;2023-06-04T11:11:13;2.80;;;1.20;;
13592;SDS011;6867;50.998;4.250;2023-06-04T11:13:42;2.40;;;1.10;;
13592;SDS011;6867;50.998;4.250;2023-06-04T11:16:17;3.17;;;1.20;;
13592;SDS011;6867;50.998;4.250;2023-06-04T11:18:53;2.15;;;1.33;;
13592;SDS011;6867;50.998;4.250;2023-06-04T11:21:21;4.78;;;1.25;;
13592;SDS011;6867;50.998;4.250;2023-06-04T11:23:48;2.83;;;1.00;;
13592;SDS011;6867;50.998;4.250;2023-06-04T11:26:16;2.30;;;1.20;;
13592;SDS011;6867;50.998;4.250;2023-06-04T11:28:42;1.20;;;1.10;;
13592;SDS011;6867;50.998;4.250;2023-06-04T11:31:10;3.22;;;0.98;;
13592;SDS011;6867;50.998;4.250;2023-06-04T11:33:44;3.97;;;1.17;;
13592;SDS011;6867;50.998;4.250;2023-06-04T11:36:21;1.50;;;1.20;;
13592;SDS011;6867;50.998;4.250;2023-06-04T11:38:56;3.40;;;1.23;;
13592;SDS011;6867;50.998;4.250;2023-06-04T11:41:24;2.00;;;1.08;;
13592;SDS011;6867;50.998;4.250;2023-06-04T11:43:53;4.03;;;1.10;;
13592;SDS011;6867;50.998;4.250;2023-06-04T11:46:20;2.67;;;1.27;;
13592;SDS011;6867;50.998;4.250;2023-06-04T11:48:48;2.60;;;1.10;;
13592;SDS011;6867;50.998;4.250;2023-06-04T11:51:16;3.08;;;1.30;;
13592;SDS011;6867;50.998;4.250;2023-06-04T11:53:43;1.35;;;1.02;;
13592;SDS011;6867;50.998;4.250;2023-06-04T11:56:10;2.05;;;1.42;;
13592;SDS011;6867;50.998;4.250;2023-06-04T11:58:37;2.80;;;1.40;;
13592;SDS011;6867;50.998;4.250;2023-06-04T12:01:05;1.75;;;1.30;;
13592;SDS011;6867;50.998;4.250;2023-06-04T12:03:36;2.75;;;1.17;;
13592;SDS011;6867;50.998;4.250;2023-06-04T12:06:14;2.20;;;1.25;;
13592;SDS011;6867;50.998;4.250;2023-06-04T12:08:45;4.60;;;1.20;;
13592;SDS011;6867;50.998;4.250;2023-06-04T12:11:25;2.05;;;1.05;;
13592;SDS011;6867;50.998;4.250;2023-06-04T12:13:54;1.23;;;1.13;;
13592;SDS011;6867;50.998;4.250;2023-06-04T12:16:21;3.80;;;1.20;;
13592;SDS011;6867;50.998;4.250;2023-06-04T12:18:48;2.08;;;1.40;;
13592;SDS011;6867;50.998;4.250;2023-06-04T12:21:22;1.63;;;1.13;;
13592;SDS011;6867;50.998;4.250;2023-06-04T12:23:53;2.92;;;1.15;;
13592;SDS011;6867;50.998;4.250;2023-06-04T12:26:21;6.55;;;1.73;;
13592;SDS011;6867;50.998;4.250;2023-06-04T12:28:58;3.85;;;1.52;;
13592;SDS011;6867;50.998;4.250;2023-06-04T12:31:26;3.45;;;1.40;;
13592;SDS011;6867;50.998;4.250;2023-06-04T12:33:58;3.58;;;1.25;;
13592;SDS011;6867;50.998;4.250;2023-06-04T12:36:27;1.52;;;1.08;;
13592;SDS011;6867;50.998;4.250;2023-06-04T12:38:57;1.70;;;1.20;;
13592;SDS011;6867;50.998;4.250;2023-06-04T12:41:25;2.90;;;1.65;;
13592;SDS011;6867;50.998;4.250;2023-06-04T12:43:52;3.08;;;1.55;;
13592;SDS011;6867;50.998;4.250;2023-06-04T12:46:19;4.60;;;1.88;;
13592;SDS011;6867;50.998;4.250;2023-06-04T12:48:46;3.20;;;1.75;;
13592;SDS011;6867;50.998;4.250;2023-06-04T12:51:13;4.53;;;1.40;;
13592;SDS011;6867;50.998;4.250;2023-06-04T12:53:41;2.00;;;1.42;;
13592;SDS011;6867;50.998;4.250;2023-06-04T12:56:08;3.78;;;1.40;;
13592;SDS011;6867;50.998;4.250;2023-06-04T12:58:36;2.42;;;1.05;;
13592;SDS011;6867;50.998;4.250;2023-06-04T13:01:03;2.35;;;1.00;;
13592;SDS011;6867;50.998;4.250;2023-06-04T13:03:30;1.92;;;1.17;;
13592;SDS011;6867;50.998;4.250;2023-06-04T13:05:57;5.10;;;1.73;;
13592;SDS011;6867;50.998;4.250;2023-06-04T13:08:24;1.50;;;1.30;;
13592;SDS011;6867;50.998;4.250;2023-06-04T13:10:52;1.60;;;1.50;;
13592;SDS011;6867;50.998;4.250;2023-06-04T13:13:19;2.35;;;1.30;;
13592;SDS011;6867;50.998;4.250;2023-06-04T13:15:46;3.33;;;1.55;;
13592;SDS011;6867;50.998;4.250;2023-06-04T13:18:13;3.80;;;1.42;;
13592;SDS011;6867;50.998;4.250;2023-06-04T13:20:40;1.73;;;1.38;;
13592;SDS011;6867;50.998;4.250;2023-06-04T13:23:08;2.95;;;1.40;;
13592;SDS011;6867;50.998;4.250;2023-06-04T13:25:37;2.45;;;1.35;;
13592;SDS011;6867;50.998;4.250;2023-06-04T13:28:05;3.50;;;1.50;;
13592;SDS011;6867;50.998;4.250;2023-06-04T13:30:33;2.00;;;1.20;;
13592;SDS011;6867;50.998;4.250;2023-06-04T13:33:01;2.78;;;1.33;;
13592;SDS011;6867;50.998;4.250;2023-06-04T13:35:28;3.35;;;1.40;;
13592;SDS011;6867;50.998;4.250;2023-06-04T13:37:55;3.40;;;1.42;;
13592;SDS011;6867;50.998;4.250;2023-06-04T13:40:22;1.85;;;1.30;;
13592;SDS011;6867;50.998;4.250;2023-06-04T13:42:48;2.50;;;1.30;;
13592;SDS011;6867;50.998;4.250;2023-06-04T13:45:16;5.63;;;1.50;;
13592;SDS011;6867;50.998;4.250;2023-06-04T13:47:45;2.92;;;1.42;;
13592;SDS011;6867;50.998;4.250;2023-06-04T13:50:13;3.03;;;1.33;;
13592;SDS011;6867;50.998;4.250;2023-06-04T13:52:39;3.42;;;1.70;;
13592;SDS011;6867;50.998;4.250;2023-06-04T13:55:06;1.60;;;1.45;;
13592;SDS011;6867;50.998;4.250;2023-06-04T13:57:33;3.38;;;1.30;;
13592;SDS011;6867;50.998;4.250;2023-06-04T14:00:00;2.75;;;1.45;;
13592;SDS011;6867;50.998;4.250;2023-06-04T14:02:28;1.98;;;1.33;;
13592;SDS011;6867;50.998;4.250;2023-06-04T14:04:55;3.17;;;1.63;;
13592;SDS011;6867;50.998;4.250;2023-06-04T14:07:22;2.05;;;1.35;;
13592;SDS011;6867;50.998;4.250;2023-06-04T14:09:48;4.32;;;1.30;;
13592;SDS011;6867;50.998;4.250;2023-06-04T14:12:19;3.65;;;1.38;;
13592;SDS011;6867;50.998;4.250;2023-06-04T14:14:46;2.53;;;1.45;;
13592;SDS011;6867;50.998;4.250;2023-06-04T14:17:13;6.38;;;1.80;;
13592;SDS011;6867;50.998;4.250;2023-06-04T14:19:41;2.85;;;1.10;;
13592;SDS011;6867;50.998;4.250;2023-06-04T14:22:09;2.50;;;1.58;;
13592;SDS011;6867;50.998;4.250;2023-06-04T14:24:36;1.50;;;1.38;;
13592;SDS011;6867;50.998;4.250;2023-06-04T14:27:03;3.38;;;1.35;;
13592;SDS011;6867;50.998;4.250;2023-06-04T14:29:31;1.80;;;1.38;;
13592;SDS011;6867;50.998;4.250;2023-06-04T14:31:58;2.70;;;1.67;;
13592;SDS011;6867;50.998;4.250;2023-06-04T14:34:24;1.48;;;1.35;;
13592;SDS011;6867;50.998;4.250;2023-06-04T14:36:52;2.10;;;1.48;;
13592;SDS011;6867;50.998;4.250;2023-06-04T14:39:19;3.22;;;1.50;;
13592;SDS011;6867;50.998;4.250;2023-06-04T14:41:46;3.83;;;1.45;;
13592;SDS011;6867;50.998;4.250;2023-06-04T14:44:12;2.13;;;1.58;;
13592;SDS011;6867;50.998;4.250;2023-06-04T14:46:39;2.15;;;1.35;;
13592;SDS011;6867;50.998;4.250;2023-06-04T14:49:06;3.72;;;1.40;;
13592;SDS011;6867;50.998;4.250;2023-06-04T14:51:32;3.70;;;1.20;;
13592;SDS011;6867;50.998;4.250;2023-06-04T14:54:00;2.90;;;1.77;;
13592;SDS011;6867;50.998;4.250;2023-06-04T14:56:27;2.28;;;1.35;;
13592;SDS011;6867;50.998;4.250;2023-06-04T14:58:55;3.85;;;1.77;;
13592;SDS011;6867;50.998;4.250;2023-06-04T15:01:22;1.95;;;1.45;;
13592;SDS011;6867;50.998;4.250;2023-06-04T15:03:49;1.52;;;1.27;;
13592;SDS011;6867;50.998;4.250;2023-06-04T15:06:16;1.90;;;1.70;;